Time;durP1;ratioP1;P1;durP2;ratioP2;P2;SDS_P1;SDS_P2;PMS_P1;PMS_P2;Temp;Humidity;BMP_temperature;BMP_pressure;BME280_temperature;BME280_humidity;BME280_pressure;Samples;Min_cycle;Max_cycle;Signal;HPM_P1;HPM_P2
2023/09/11 00:02:07;;;;;;;13.50;7.38;;;25.60;50.90;;;;;;5102211;28;20094;-82
2023/09/11 00:04:33;;;;;;;13.73;7.32;;;25.50;50.90;;;;;;5110374;28;20061;-82
2023/09/11 00:07:00;;;;;;;12.70;7.38;;;25.50;50.80;;;;;;5090768;22;20053;-83
2023/09/11 00:09:26;;;;;;;12.80;7.43;;;25.50;51.00;;;;;;5097478;28;20060;-81
2023/09/11 00:11:51;;;;;;;11.57;6.80;;;25.50;51.30;;;;;;5094382;28;20080;-82
2023/09/11 00:14:17;;;;;;;16.17;7.35;;;25.40;51.10;;;;;;5096504;28;20035;-81
2023/09/11 00:16:43;;;;;;;11.35;6.82;;;25.40;51.50;;;;;;5093934;28;20040;-81
2023/09/11 00:19:09;;;;;;;12.23;6.90;;;25.40;51.30;;;;;;5092483;28;20036;-83
2023/09/11 00:21:35;;;;;;;12.43;6.90;;;25.40;51.60;;;;;;5093025;28;20123;-80
2023/09/11 00:24:01;;;;;;;10.25;6.85;;;25.30;51.50;;;;;;5093017;28;20458;-82
2023/09/11 00:26:26;;;;;;;12.18;6.75;;;25.30;51.80;;;;;;5093081;28;20419;-83
2023/09/11 00:28:52;;;;;;;8.57;6.05;;;25.30;51.90;;;;;;5093355;28;20452;-81
2023/09/11 00:31:19;;;;;;;11.15;6.72;;;25.20;51.90;;;;;;5093302;28;20118;-81
2023/09/11 00:33:44;;;;;;;12.77;6.88;;;25.20;51.70;;;;;;5093054;28;20032;-81
2023/09/11 00:36:10;;;;;;;11.63;6.60;;;25.20;51.80;;;;;;5093036;28;20390;-79
2023/09/11 00:38:35;;;;;;;15.20;6.50;;;25.10;52.00;;;;;;5093091;28;20110;-82
2023/09/11 00:41:01;;;;;;;11.30;6.57;;;25.10;52.10;;;;;;5093154;28;20031;-80
2023/09/11 00:43:27;;;;;;;12.10;6.38;;;25.00;52.00;;;;;;5074869;28;20487;-80
2023/09/11 00:45:55;;;;;;;14.40;6.35;;;25.00;52.20;;;;;;5093121;28;20044;-81
2023/09/11 00:48:21;;;;;;;10.40;6.38;;;25.00;52.20;;;;;;5074893;28;20399;-82
2023/09/11 00:50:47;;;;;;;10.18;6.03;;;25.00;52.30;;;;;;5074861;28;20040;-82
2023/09/11 00:53:13;;;;;;;8.85;5.95;;;25.00;52.30;;;;;;5093038;28;20094;-82
2023/09/11 00:55:40;;;;;;;10.95;6.22;;;25.00;52.20;;;;;;5094959;28;20040;-82
2023/09/11 00:58:06;;;;;;;10.95;6.40;;;25.00;52.20;;;;;;5108959;28;20032;-81
2023/09/11 01:00:32;;;;;;;9.15;6.38;;;25.00;52.20;;;;;;5101648;28;20081;-82
2023/09/11 01:02:58;;;;;;;12.48;6.18;;;24.90;51.90;;;;;;5094831;28;20115;-82
2023/09/11 01:05:28;;;;;;;8.93;5.70;;;24.90;52.30;;;;;;5092720;28;20036;-81
2023/09/11 01:07:54;;;;;;;12.88;6.80;;;24.90;52.50;;;;;;5093194;28;20399;-83
2023/09/11 01:10:20;;;;;;;11.05;5.97;;;24.90;52.50;;;;;;5093207;28;20036;-82
2023/09/11 01:12:46;;;;;;;9.38;6.22;;;24.90;52.40;;;;;;5077639;28;20463;-81
2023/09/11 01:15:11;;;;;;;9.13;5.95;;;24.90;52.40;;;;;;5111574;28;20035;-82
2023/09/11 01:17:48;;;;;;;8.75;6.15;;;24.90;52.50;;;;;;5113769;28;20039;-83
2023/09/11 01:20:36;;;;;;;10.50;6.05;;;24.80;52.60;;;;;;5112899;28;20054;-80
2023/09/11 01:23:11;;;;;;;13.43;5.78;;;24.80;52.50;;;;;;5094967;28;20118;-83
2023/09/11 01:26:16;;;;;;;11.18;5.75;;;24.70;52.60;;;;;;5094521;28;20040;-83
2023/09/11 01:29:08;;;;;;;14.20;6.40;;;24.80;52.80;;;;;;5082594;28;20043;-82
2023/09/11 01:31:36;;;;;;;10.82;5.95;;;24.70;52.60;;;;;;5116573;28;20517;-82
2023/09/11 01:34:04;;;;;;;10.27;5.60;;;24.70;52.80;;;;;;5095343;28;20042;-81
2023/09/11 01:36:30;;;;;;;10.40;5.72;;;24.70;52.90;;;;;;5112887;28;20040;-82
2023/09/11 01:38:56;;;;;;;10.02;6.40;;;24.70;52.90;;;;;;5112769;28;20032;-82
2023/09/11 01:41:36;;;;;;;10.20;6.03;;;24.70;53.00;;;;;;5112684;28;20107;-81
2023/09/11 01:44:30;;;;;;;11.60;5.65;;;24.60;53.10;;;;;;5112991;28;20031;-81
2023/09/11 01:46:57;;;;;;;9.48;5.97;;;24.50;53.30;;;;;;5105841;28;20032;-82
2023/09/11 01:49:25;;;;;;;10.93;5.80;;;24.50;53.40;;;;;;5113697;28;20035;-81
2023/09/11 01:51:52;;;;;;;9.50;5.53;;;24.50;53.50;;;;;;5112618;28;20102;-82
2023/09/11 01:54:19;;;;;;;9.68;6.38;;;24.50;53.50;;;;;;5112822;28;20038;-82
2023/09/11 01:56:45;;;;;;;8.00;5.93;;;24.50;53.60;;;;;;5115296;28;20032;-82
2023/09/11 01:59:14;;;;;;;9.63;6.13;;;24.50;53.50;;;;;;5113268;28;20550;-80
2023/09/11 02:01:40;;;;;;;11.20;6.45;;;24.40;53.50;;;;;;5112603;28;20024;-82
2023/09/11 02:04:06;;;;;;;9.65;6.18;;;24.40;53.80;;;;;;5112548;28;20036;-81
2023/09/11 02:06:32;;;;;;;11.30;6.50;;;24.40;53.80;;;;;;5112308;28;20062;-81
2023/09/11 02:08:58;;;;;;;13.80;6.82;;;24.30;53.70;;;;;;5112682;28;20032;-81
2023/09/11 02:11:23;;;;;;;10.55;6.40;;;24.30;54.40;;;;;;5112300;28;20046;-81
2023/09/11 02:13:50;;;;;;;10.65;6.25;;;24.30;54.00;;;;;;5094130;28;20375;-81
2023/09/11 02:16:15;;;;;;;9.18;6.47;;;24.30;53.80;;;;;;5112336;28;20036;-82
2023/09/11 02:18:41;;;;;;;11.30;6.32;;;24.30;53.90;;;;;;5112410;28;20085;-83
2023/09/11 02:21:07;;;;;;;9.80;6.40;;;24.30;54.00;;;;;;5112284;28;20111;-82
2023/09/11 02:23:33;;;;;;;10.60;6.78;;;24.20;54.00;;;;;;5112484;28;20043;-81
2023/09/11 02:25:59;;;;;;;10.38;6.00;;;24.10;54.00;;;;;;5112090;28;20391;-82
2023/09/11 02:28:26;;;;;;;11.77;6.97;;;24.20;54.20;;;;;;5115127;28;20030;-81
2023/09/11 02:30:52;;;;;;;10.82;6.70;;;24.20;54.20;;;;;;5115636;28;20098;-81
2023/09/11 02:33:18;;;;;;;11.10;5.90;;;24.20;54.20;;;;;;5097392;28;20036;-81
2023/09/11 02:35:43;;;;;;;12.68;6.60;;;24.20;54.30;;;;;;5115586;28;20407;-80
2023/09/11 02:38:09;;;;;;;10.02;6.43;;;24.10;54.40;;;;;;5115545;28;20040;-82
2023/09/11 02:40:37;;;;;;;9.30;6.63;;;24.10;54.50;;;;;;5116058;28;20024;-83
2023/09/11 02:43:03;;;;;;;16.67;9.75;;;24.10;54.40;;;;;;5117264;28;20498;-81
2023/09/11 02:45:28;;;;;;;15.52;10.20;;;24.10;54.40;;;;;;5108846;28;20099;-82
2023/09/11 02:47:54;;;;;;;15.40;12.00;;;24.10;54.40;;;;;;5133956;28;20039;-83
2023/09/11 02:50:20;;;;;;;15.13;10.98;;;24.10;54.40;;;;;;5097932;28;20038;-81
2023/09/11 02:52:46;;;;;;;14.07;8.63;;;24.10;54.60;;;;;;5119799;28;20516;-81
2023/09/11 02:55:11;;;;;;;11.70;8.00;;;24.00;54.30;;;;;;5115784;28;20177;-83
2023/09/11 02:57:38;;;;;;;11.07;6.85;;;24.00;54.60;;;;;;5116753;28;20031;-82
2023/09/11 03:00:05;;;;;;;10.55;6.50;;;24.00;54.50;;;;;;5115599;28;20097;-82
2023/09/11 03:02:31;;;;;;;10.30;6.03;;;24.00;54.50;;;;;;5116336;28;20032;-83
2023/09/11 03:04:57;;;;;;;8.75;5.80;;;24.00;54.60;;;;;;5115620;28;20063;-82
2023/09/11 03:07:23;;;;;;;9.55;6.13;;;24.00;54.60;;;;;;5115282;28;20048;-81
2023/09/11 03:09:49;;;;;;;8.68;5.63;;;23.90;54.60;;;;;;5115115;28;20035;-82
2023/09/11 03:12:15;;;;;;;9.32;5.93;;;23.90;54.80;;;;;;5115324;28;20391;-81
2023/09/11 03:14:40;;;;;;;13.07;5.97;;;23.90;55.10;;;;;;5115215;28;20036;-82
2023/09/11 03:17:06;;;;;;;12.00;5.75;;;23.80;55.10;;;;;;5114778;28;20060;-81
2023/09/11 03:19:35;;;;;;;11.98;5.63;;;23.70;55.30;;;;;;5115320;28;20040;-81
2023/09/11 03:22:01;;;;;;;10.88;5.63;;;23.70;55.30;;;;;;5114992;28;20377;-81
2023/09/11 03:24:27;;;;;;;10.75;5.75;;;23.60;55.50;;;;;;5115123;28;20135;-81
2023/09/11 03:26:52;;;;;;;7.65;5.63;;;23.50;55.60;;;;;;5115005;28;20038;-81
2023/09/11 03:29:18;;;;;;;7.72;5.65;;;23.50;55.70;;;;;;5114887;28;20047;-82
2023/09/11 03:31:44;;;;;;;8.93;5.35;;;23.40;55.80;;;;;;5115007;28;20050;-82
2023/09/11 03:34:10;;;;;;;13.00;5.78;;;23.30;56.00;;;;;;5115022;28;20152;-81
2023/09/11 03:36:36;;;;;;;8.35;5.53;;;23.30;55.90;;;;;;5123989;28;20028;-82
2023/09/11 03:39:02;;;;;;;9.40;5.97;;;23.30;55.90;;;;;;5124168;28;20042;-82
2023/09/11 03:41:28;;;;;;;10.23;5.50;;;23.40;55.90;;;;;;5114833;28;20039;-82
2023/09/11 03:43:53;;;;;;;7.65;5.40;;;23.50;56.00;;;;;;5114698;28;20491;-83
2023/09/11 03:46:20;;;;;;;11.30;6.22;;;23.40;55.80;;;;;;5114665;28;20090;-81
2023/09/11 03:48:45;;;;;;;7.03;5.15;;;23.40;56.20;;;;;;5117325;28;20032;-80
2023/09/11 03:51:11;;;;;;;9.32;4.97;;;23.40;56.00;;;;;;5114417;28;20503;-82
2023/09/11 03:53:42;;;;;;;7.70;5.57;;;23.40;56.00;;;;;;5114363;28;20467;-82
2023/09/11 03:56:09;;;;;;;12.18;5.97;;;23.40;56.10;;;;;;5114112;28;20050;-82
2023/09/11 03:58:35;;;;;;;9.32;6.10;;;23.40;56.10;;;;;;5097738;28;20043;-82
2023/09/11 04:01:01;;;;;;;10.50;5.40;;;23.40;56.10;;;;;;5117985;28;20028;-82
2023/09/11 04:03:26;;;;;;;11.23;5.78;;;23.50;56.00;;;;;;5096031;28;20042;-82
2023/09/11 04:05:52;;;;;;;8.98;5.22;;;23.50;56.00;;;;;;5113801;28;20387;-81
2023/09/11 04:08:18;;;;;;;10.10;5.47;;;23.50;55.80;;;;;;5095955;28;20429;-75
2023/09/11 04:10:44;;;;;;;9.07;5.40;;;23.50;55.80;;;;;;5114017;28;20067;-81
2023/09/11 04:13:10;;;;;;;10.68;5.10;;;23.50;55.70;;;;;;5114010;28;20039;-81
2023/09/11 04:15:36;;;;;;;10.65;5.13;;;23.50;55.60;;;;;;5114270;28;20027;-82
2023/09/11 04:18:02;;;;;;;9.38;5.45;;;23.40;55.90;;;;;;5114142;28;20531;-81
2023/09/11 04:20:33;;;;;;;9.00;5.80;;;23.30;55.80;;;;;;5113775;28;20104;-81
2023/09/11 04:23:02;;;;;;;8.43;5.45;;;23.40;56.00;;;;;;5114146;28;20118;-82
2023/09/11 04:25:29;;;;;;;7.50;5.50;;;23.30;55.90;;;;;;5113592;28;20402;-82
2023/09/11 04:27:55;;;;;;;6.93;4.93;;;23.30;55.90;;;;;;5095495;28;20032;-82
2023/09/11 04:30:22;;;;;;;10.23;5.72;;;23.40;56.00;;;;;;5115030;28;20062;-81
2023/09/11 04:32:48;;;;;;;9.15;5.00;;;23.30;55.90;;;;;;5123642;28;20509;-82
2023/09/11 04:35:14;;;;;;;9.68;5.20;;;23.30;56.00;;;;;;5127068;28;20032;-81
2023/09/11 04:37:40;;;;;;;8.10;5.25;;;23.20;56.00;;;;;;5114224;28;20024;-81
2023/09/11 04:40:06;;;;;;;11.50;5.63;;;23.20;56.20;;;;;;5095384;28;20054;-81
2023/09/11 04:42:33;;;;;;;9.07;5.38;;;23.20;56.20;;;;;;5097204;28;20055;-82
2023/09/11 04:44:59;;;;;;;8.05;5.22;;;23.20;56.20;;;;;;5115121;28;20035;-81
2023/09/11 04:47:32;;;;;;;9.77;5.20;;;23.20;56.10;;;;;;5113565;28;20490;-83
2023/09/11 04:49:58;;;;;;;8.57;5.53;;;23.30;56.30;;;;;;5113372;28;20035;-81
2023/09/11 04:52:24;;;;;;;11.63;5.35;;;23.30;56.10;;;;;;5113254;28;20462;-82
2023/09/11 04:54:50;;;;;;;9.05;5.32;;;23.30;55.90;;;;;;5113099;28;20539;-81
2023/09/11 04:57:16;;;;;;;10.18;5.85;;;23.30;55.90;;;;;;5113595;28;20059;-83
2023/09/11 04:59:42;;;;;;;10.38;5.20;;;23.30;56.00;;;;;;5113327;28;20148;-83
2023/09/11 05:02:11;;;;;;;7.93;5.53;;;23.20;56.10;;;;;;5113391;28;20127;-82
2023/09/11 05:04:38;;;;;;;11.95;5.90;;;23.20;56.30;;;;;;5113092;28;20435;-81
2023/09/11 05:07:04;;;;;;;9.02;5.63;;;23.20;56.30;;;;;;5112650;28;20047;-83
2023/09/11 05:09:33;;;;;;;12.63;5.30;;;23.30;56.20;;;;;;5113196;28;20074;-83
2023/09/11 05:11:59;;;;;;;10.32;5.60;;;23.30;56.30;;;;;;5113251;28;20093;-83
2023/09/11 05:14:25;;;;;;;11.43;5.57;;;23.30;56.00;;;;;;5113631;28;20475;-84
2023/09/11 05:16:51;;;;;;;19.10;6.20;;;23.30;55.90;;;;;;5096019;28;20039;-83
2023/09/11 05:19:16;;;;;;;10.38;5.65;;;23.30;56.10;;;;;;5113580;28;20493;-81
2023/09/11 05:21:42;;;;;;;9.35;5.68;;;23.30;55.90;;;;;;5112829;28;20043;-82
2023/09/11 05:24:08;;;;;;;14.93;6.18;;;23.30;55.90;;;;;;5113085;28;20093;-82
2023/09/11 05:26:34;;;;;;;12.52;6.47;;;23.20;55.90;;;;;;5094987;28;20123;-82
2023/09/11 05:29:00;;;;;;;10.13;5.78;;;23.20;55.90;;;;;;5113210;28;20111;-83
2023/09/11 05:31:25;;;;;;;8.15;5.55;;;23.20;55.40;;;;;;5094858;28;20070;-82
2023/09/11 05:33:51;;;;;;;8.35;5.28;;;23.20;55.80;;;;;;5112800;28;20030;-83
2023/09/11 05:36:17;;;;;;;8.95;5.95;;;23.20;55.90;;;;;;5112935;28;20063;-82
2023/09/11 05:38:43;;;;;;;9.48;5.45;;;23.10;55.90;;;;;;5115929;28;20533;-81
2023/09/11 05:41:09;;;;;;;14.35;6.05;;;23.20;55.80;;;;;;5095273;28;20402;-83
2023/09/11 05:43:36;;;;;;;12.43;5.70;;;23.20;56.00;;;;;;5121583;28;20123;-81
2023/09/11 05:46:02;;;;;;;16.40;5.85;;;23.20;55.90;;;;;;5116329;28;20035;-81
2023/09/11 05:48:27;;;;;;;12.13;5.82;;;23.30;56.30;;;;;;5112789;28;20119;-83
2023/09/11 05:50:53;;;;;;;12.80;6.40;;;23.40;55.60;;;;;;5112697;28;20039;-84
2023/09/11 05:53:19;;;;;;;13.65;5.43;;;23.60;55.10;;;;;;5112793;28;20157;-82
2023/09/11 05:55:45;;;;;;;16.52;6.13;;;23.80;54.70;;;;;;5112699;28;20114;-83
2023/09/11 05:58:11;;;;;;;15.27;6.68;;;24.20;54.20;;;;;;5112212;28;20068;-81
2023/09/11 06:00:36;;;;;;;10.13;6.30;;;24.50;53.50;;;;;;5112299;28;20059;-82
2023/09/11 06:03:02;;;;;;;11.00;5.53;;;24.70;53.00;;;;;;5115024;28;20059;-82
2023/09/11 06:05:30;;;;;;;10.68;5.13;;;25.00;52.60;;;;;;5115933;28;20040;-82
2023/09/11 06:07:56;;;;;;;15.05;6.15;;;25.20;51.80;;;;;;5117016;28;20051;-82
2023/09/11 06:10:22;;;;;;;9.93;5.90;;;25.40;51.40;;;;;;5120929;28;20065;-83
2023/09/11 06:12:48;;;;;;;19.77;5.35;;;25.60;50.90;;;;;;5118301;28;20057;-83
2023/09/11 06:15:14;;;;;;;16.95;5.97;;;25.60;50.80;;;;;;5115958;28;20038;-83
2023/09/11 06:17:40;;;;;;;11.35;5.93;;;25.90;50.60;;;;;;5116258;28;20031;-82
2023/09/11 06:20:09;;;;;;;13.95;5.68;;;26.10;50.20;;;;;;5116006;28;20085;-70
2023/09/11 06:22:36;;;;;;;9.98;5.85;;;26.20;49.90;;;;;;5115906;28;20031;-84
2023/09/11 06:25:04;;;;;;;18.25;6.35;;;26.30;49.30;;;;;;5097057;28;20143;-81
2023/09/11 06:27:30;;;;;;;13.77;6.35;;;26.50;49.30;;;;;;5102635;28;20055;-81
2023/09/11 06:29:56;;;;;;;10.43;5.72;;;26.70;49.10;;;;;;5121833;28;20039;-82
2023/09/11 06:32:21;;;;;;;15.48;6.07;;;26.90;48.90;;;;;;5119675;28;20047;-81
2023/09/11 06:34:47;;;;;;;15.60;5.32;;;27.00;48.70;;;;;;5115843;28;20035;-84
2023/09/11 06:37:13;;;;;;;10.25;5.90;;;27.20;48.30;;;;;;5116073;28;20114;-81
2023/09/11 06:39:39;;;;;;;13.88;5.78;;;27.30;47.90;;;;;;5097451;28;20032;-82
2023/09/11 06:42:04;;;;;;;10.35;6.10;;;27.30;47.70;;;;;;5119138;28;20032;-81
2023/09/11 06:44:31;;;;;;;13.43;5.72;;;27.50;47.70;;;;;;5126802;28;20100;-82
2023/09/11 06:46:57;;;;;;;20.95;5.82;;;27.70;47.50;;;;;;5115314;28;20028;-83
2023/09/11 06:49:22;;;;;;;14.80;6.30;;;27.80;47.10;;;;;;5096936;28;20135;-82
2023/09/11 06:51:48;;;;;;;14.32;5.57;;;27.90;47.00;;;;;;5115666;28;20035;-84
2023/09/11 06:54:14;;;;;;;12.68;5.88;;;28.00;46.90;;;;;;5097125;28;20039;-83
2023/09/11 06:56:42;;;;;;;14.98;5.70;;;28.00;46.90;;;;;;5115046;28;20047;-82
2023/09/11 06:59:08;;;;;;;14.00;5.78;;;28.20;46.80;;;;;;5096861;28;20035;-83
2023/09/11 07:01:38;;;;;;;10.48;5.38;;;28.20;46.50;;;;;;5115424;28;20054;-82
2023/09/11 07:04:10;;;;;;;12.02;5.72;;;28.30;46.60;;;;;;5114863;28;20038;-83
2023/09/11 07:06:37;;;;;;;11.65;6.30;;;28.40;46.20;;;;;;5096306;28;20058;-83
2023/09/11 07:09:07;;;;;;;14.20;5.75;;;28.30;46.40;;;;;;5114958;28;20395;-83
2023/09/11 07:11:33;;;;;;;9.32;5.35;;;28.40;45.20;;;;;;5114736;28;20046;-82
2023/09/11 07:13:59;;;;;;;9.68;5.43;;;28.50;46.10;;;;;;5115109;28;20024;-82
2023/09/11 07:16:25;;;;;;;9.88;5.45;;;28.40;46.10;;;;;;5115611;28;20050;-82
2023/09/11 07:18:51;;;;;;;12.82;5.63;;;28.50;46.30;;;;;;5114957;28;20052;-84
2023/09/11 07:21:17;;;;;;;12.68;5.75;;;28.60;46.20;;;;;;5096676;28;20058;-82
2023/09/11 07:23:43;;;;;;;14.82;6.30;;;28.60;46.20;;;;;;5114555;28;20445;-83
2023/09/11 07:26:08;;;;;;;9.75;5.60;;;28.70;45.90;;;;;;5114647;28;20050;-81
2023/09/11 07:29:02;;;;;;;13.65;5.78;;;28.70;45.90;;;;;;5116895;28;20045;-84
2023/09/11 07:31:29;;;;;;;10.77;5.65;;;28.80;46.10;;;;;;5114431;28;20430;-81
2023/09/11 07:33:55;;;;;;;9.13;5.85;;;28.90;46.00;;;;;;5114796;28;20055;-83
2023/09/11 07:36:20;;;;;;;10.43;5.65;;;28.90;45.60;;;;;;5096027;28;20040;-84
2023/09/11 07:38:46;;;;;;;15.55;5.85;;;28.80;46.10;;;;;;5095772;28;20417;-83
2023/09/11 07:41:17;;;;;;;11.35;6.03;;;28.80;45.70;;;;;;5113960;28;20537;-82
2023/09/11 07:43:49;;;;;;;9.40;5.30;;;28.80;45.70;;;;;;5114947;28;20312;-83
2023/09/11 07:46:19;;;;;;;13.57;6.35;;;28.90;45.90;;;;;;5115192;28;20126;-82
2023/09/11 07:48:46;;;;;;;10.30;5.60;;;28.90;45.80;;;;;;5115197;28;20421;-82
2023/09/11 07:51:12;;;;;;;11.23;5.45;;;28.90;45.60;;;;;;5114856;28;20491;-82
2023/09/11 07:53:38;;;;;;;9.88;5.60;;;28.90;45.60;;;;;;5114317;28;20118;-83
2023/09/11 07:56:08;;;;;;;15.27;6.18;;;29.00;45.70;;;;;;5116826;28;20035;-84
2023/09/11 07:58:37;;;;;;;8.98;5.55;;;28.90;45.50;;;;;;5117765;28;20039;-83
2023/09/11 08:01:04;;;;;;;15.05;5.32;;;28.80;45.70;;;;;;5114676;28;20028;-83
2023/09/11 08:03:32;;;;;;;10.75;5.53;;;28.80;45.70;;;;;;5114379;28;20398;-82
2023/09/11 08:05:59;;;;;;;12.85;5.43;;;28.80;45.70;;;;;;5114559;28;20399;-82
2023/09/11 08:08:26;;;;;;;9.70;5.53;;;28.70;45.80;;;;;;5113590;28;20028;-83
2023/09/11 08:10:52;;;;;;;9.55;5.93;;;28.50;45.80;;;;;;5113598;28;20536;-82
2023/09/11 08:13:18;;;;;;;10.75;5.38;;;28.40;46.10;;;;;;5114188;28;20035;-82
2023/09/11 08:15:43;;;;;;;16.98;5.70;;;28.30;46.20;;;;;;5113955;28;20076;-84
2023/09/11 08:18:09;;;;;;;9.63;6.00;;;28.30;46.30;;;;;;5114590;28;20077;-83
2023/09/11 08:20:36;;;;;;;9.57;6.07;;;28.30;47.20;;;;;;5113195;28;20424;-83
2023/09/11 08:23:01;;;;;;;13.73;6.15;;;28.30;46.50;;;;;;5113731;28;20487;-84
2023/09/11 08:25:27;;;;;;;14.73;5.43;;;28.30;46.70;;;;;;5113387;28;20040;-83
2023/09/11 08:27:53;;;;;;;13.88;5.40;;;28.30;46.70;;;;;;5113348;28;20024;-83
2023/09/11 08:30:19;;;;;;;10.00;5.63;;;28.20;46.70;;;;;;5113668;28;20062;-83
2023/09/11 08:32:45;;;;;;;10.60;5.95;;;28.20;46.60;;;;;;5113185;28;20038;-83
2023/09/11 08:35:11;;;;;;;11.88;6.43;;;28.10;47.00;;;;;;5113306;28;20102;-83
2023/09/11 08:37:36;;;;;;;11.32;5.60;;;28.20;46.90;;;;;;5114295;28;20117;-85
2023/09/11 08:40:03;;;;;;;9.38;5.32;;;28.20;46.90;;;;;;5114495;28;20044;-84
2023/09/11 08:42:29;;;;;;;12.43;6.63;;;28.20;46.60;;;;;;5095442;28;20054;-83
2023/09/11 08:44:55;;;;;;;13.45;5.80;;;28.20;46.80;;;;;;5113805;28;20495;-83
2023/09/11 08:47:26;;;;;;;14.88;5.97;;;28.20;46.60;;;;;;5114109;28;20085;-83
2023/09/11 08:49:57;;;;;;;12.90;6.25;;;28.20;46.70;;;;;;5095397;28;20426;-82
2023/09/11 08:52:23;;;;;;;12.75;6.32;;;28.20;46.80;;;;;;5112801;28;20494;-82
2023/09/11 08:54:53;;;;;;;19.77;7.28;;;28.20;46.90;;;;;;5113057;28;20039;-82
2023/09/11 08:57:21;;;;;;;11.70;6.35;;;28.30;47.00;;;;;;5112970;28;20065;-83
2023/09/11 08:59:51;;;;;;;11.35;5.75;;;28.30;47.00;;;;;;5112659;28;20036;-83
2023/09/11 09:02:20;;;;;;;12.10;6.13;;;28.30;47.00;;;;;;5115834;28;20141;-82
2023/09/11 09:04:49;;;;;;;11.40;6.32;;;28.30;46.80;;;;;;5113499;28;20394;-84
2023/09/11 09:07:16;;;;;;;14.10;5.75;;;28.30;46.90;;;;;;5112570;28;20040;-84
2023/09/11 09:09:43;;;;;;;10.02;5.43;;;28.30;46.70;;;;;;5112925;28;20108;-83
2023/09/11 09:12:10;;;;;;;11.88;5.95;;;28.30;46.50;;;;;;5112858;28;20024;-83
2023/09/11 09:14:39;;;;;;;12.93;6.00;;;28.40;46.50;;;;;;5094474;28;20394;-82
2023/09/11 09:17:05;;;;;;;10.93;5.43;;;28.40;46.40;;;;;;5116577;28;20483;-83
2023/09/11 09:19:33;;;;;;;13.38;5.50;;;28.40;46.30;;;;;;5112487;28;20035;-84
2023/09/11 09:22:05;;;;;;;12.52;5.60;;;28.50;46.20;;;;;;5112594;28;20038;-84
2023/09/11 09:24:34;;;;;;;10.18;5.63;;;28.50;45.00;;;;;;5112435;28;20042;-82
2023/09/11 09:27:05;;;;;;;12.60;5.70;;;28.60;46.10;;;;;;5112630;28;20063;-84
2023/09/11 09:29:39;;;;;;;10.38;5.07;;;28.60;45.70;;;;;;5112392;28;20032;-81
2023/09/11 09:32:06;;;;;;;14.57;5.20;;;28.70;45.50;;;;;;5094038;28;20031;-82
2023/09/11 09:34:33;;;;;;;10.02;5.13;;;28.80;45.50;;;;;;5094298;28;20043;-82
2023/09/11 09:36:59;;;;;;;8.93;5.28;;;28.90;45.10;;;;;;5114009;28;20107;-82
2023/09/11 09:39:28;;;;;;;10.20;5.45;;;28.90;45.00;;;;;;5116898;28;20063;-83
2023/09/11 09:41:56;;;;;;;11.95;5.38;;;29.00;44.40;;;;;;5116781;28;20122;-82
2023/09/11 09:44:34;;;;;;;10.93;5.53;;;29.10;44.20;;;;;;5116353;28;20144;-83
2023/09/11 09:47:18;;;;;;;11.35;5.28;;;29.10;42.90;;;;;;5116845;28;20035;-83
2023/09/11 09:49:54;;;;;;;9.82;5.28;;;29.20;43.80;;;;;;5117039;28;20060;-84
2023/09/11 09:52:30;;;;;;;8.30;5.22;;;29.20;43.40;;;;;;5116628;28;20391;-83
2023/09/11 09:54:58;;;;;;;10.82;5.32;;;29.30;43.10;;;;;;5116785;28;20115;-82
2023/09/11 09:57:26;;;;;;;9.30;5.00;;;29.30;43.30;;;;;;5117043;28;20035;-83
2023/09/11 09:59:57;;;;;;;10.00;5.25;;;29.40;43.20;;;;;;5116675;28;20055;-81
2023/09/11 10:02:34;;;;;;;11.75;5.05;;;29.50;43.00;;;;;;5116355;28;20036;-82
2023/09/11 10:05:07;;;;;;;14.15;5.60;;;29.50;42.60;;;;;;5116279;28;20048;-81
2023/09/11 10:07:41;;;;;;;;;;;29.60;42.40;;;;;;5116706;28;20043;-83
2023/09/11 10:10:39;;;;;;;13.05;4.95;;;29.70;41.80;;;;;;5117502;28;19954;-83
2023/09/11 10:13:08;;;;;;;11.57;5.40;;;29.70;42.50;;;;;;5071393;28;20120;-84
2023/09/11 10:15:38;;;;;;;11.82;5.88;;;29.80;42.70;;;;;;5116173;28;20032;-84
2023/09/11 10:18:05;;;;;;;12.55;5.22;;;29.90;42.40;;;;;;5099344;28;20039;-84
2023/09/11 10:20:32;;;;;;;10.10;5.10;;;30.00;42.30;;;;;;5116283;28;20506;-84
2023/09/11 10:23:03;;;;;;;12.93;5.40;;;30.10;42.00;;;;;;5116315;28;20032;-83
2023/09/11 10:25:42;;;;;;;12.68;5.25;;;30.20;41.90;;;;;;5116693;28;20105;-83
2023/09/11 10:28:13;;;;;;;14.55;5.38;;;30.20;40.80;;;;;;5116794;28;20039;-83
2023/09/11 10:30:50;;;;;;;7.47;4.78;;;30.30;41.90;;;;;;5115980;28;20036;-81
2023/09/11 10:33:21;;;;;;;11.20;5.30;;;30.40;41.70;;;;;;5117159;28;20043;-84
2023/09/11 10:35:51;;;;;;;8.70;4.80;;;30.50;41.50;;;;;;5117473;28;20039;-83
2023/09/11 10:38:17;;;;;;;7.50;4.75;;;30.50;40.70;;;;;;5115745;28;20028;-82
2023/09/11 10:40:43;;;;;;;8.23;4.93;;;30.60;40.30;;;;;;5115616;28;20036;-82
2023/09/11 10:43:10;;;;;;;10.00;5.35;;;30.70;40.40;;;;;;5115942;28;20515;-84
2023/09/11 10:45:36;;;;;;;8.23;4.57;;;30.70;39.80;;;;;;5115577;28;20082;-84
2023/09/11 10:48:02;;;;;;;13.63;4.80;;;30.70;39.80;;;;;;5117924;28;20028;-82
2023/09/11 10:50:38;;;;;;;9.40;4.97;;;30.80;39.50;;;;;;5120716;28;20093;-82
2023/09/11 10:53:08;;;;;;;11.13;5.35;;;30.90;39.60;;;;;;5115361;28;20035;-83
2023/09/11 10:55:35;;;;;;;6.68;4.78;;;30.90;39.60;;;;;;5115471;28;20563;-83
2023/09/11 10:58:05;;;;;;;12.80;5.20;;;31.00;39.20;;;;;;5115454;28;20068;-81
2023/09/11 11:00:39;;;;;;;10.05;5.47;;;31.10;39.10;;;;;;5096791;28;20489;-83
2023/09/11 11:03:05;;;;;;;11.82;5.18;;;31.10;38.80;;;;;;5115508;28;20060;-81
2023/09/11 11:05:36;;;;;;;11.25;4.78;;;31.20;38.80;;;;;;5115007;28;20050;-82
2023/09/11 11:08:02;;;;;;;11.90;4.78;;;31.30;38.50;;;;;;5115492;28;20039;-83
2023/09/11 11:10:28;;;;;;;12.68;4.80;;;31.40;38.80;;;;;;5115198;28;20536;-83
2023/09/11 11:13:06;;;;;;;8.75;4.78;;;31.40;38.20;;;;;;5115413;28;20023;-82
2023/09/11 11:15:33;;;;;;;8.18;4.85;;;31.40;38.10;;;;;;5097833;28;20071;-83
2023/09/11 11:18:23;;;;;;;10.98;4.93;;;31.40;37.90;;;;;;5115578;28;20494;-81
2023/09/11 11:21:04;;;;;;;9.35;4.90;;;31.50;38.00;;;;;;5115778;28;20113;-83
2023/09/11 11:23:35;;;;;;;8.75;4.57;;;31.60;37.70;;;;;;5116047;28;20066;-82
2023/09/11 11:26:07;;;;;;;9.25;4.97;;;31.60;37.80;;;;;;5116198;28;20054;-84
2023/09/11 11:28:41;;;;;;;8.20;4.70;;;31.70;37.20;;;;;;5114852;28;20055;-83
2023/09/11 11:31:08;;;;;;;8.82;5.28;;;31.70;36.70;;;;;;5115582;28;20352;-83
2023/09/11 11:33:39;;;;;;;11.60;5.03;;;31.80;36.90;;;;;;5116476;28;20027;-83
2023/09/11 11:36:09;;;;;;;11.10;5.00;;;31.80;36.90;;;;;;5115111;28;20079;-83
2023/09/11 11:38:36;;;;;;;11.05;4.30;;;31.80;36.60;;;;;;5114702;28;20028;-82
2023/09/11 11:41:03;;;;;;;11.95;4.53;;;31.90;36.70;;;;;;5114853;28;20031;-81
2023/09/11 11:43:32;;;;;;;13.50;4.22;;;31.90;36.50;;;;;;5116061;28;20124;-85
2023/09/11 11:45:58;;;;;;;10.93;4.40;;;32.00;36.30;;;;;;5118518;28;20051;-84
2023/09/11 11:48:27;;;;;;;13.27;4.50;;;32.00;36.00;;;;;;5116873;28;20028;-84
2023/09/11 11:50:53;;;;;;;8.20;3.92;;;32.00;35.80;;;;;;5122365;28;20034;-83
2023/09/11 11:53:23;;;;;;;10.98;4.60;;;32.10;35.40;;;;;;5115272;28;20055;-83
2023/09/11 11:55:51;;;;;;;9.75;4.28;;;32.00;35.30;;;;;;5096468;28;20085;-84
2023/09/11 11:58:18;;;;;;;8.68;3.95;;;32.00;34.90;;;;;;5114346;28;20038;-82
2023/09/11 12:00:58;;;;;;;9.18;4.38;;;32.00;34.60;;;;;;5114226;28;20036;-82
2023/09/11 12:03:29;;;;;;;6.63;4.32;;;32.10;34.60;;;;;;5114223;28;20034;-83
2023/09/11 12:05:56;;;;;;;6.90;3.83;;;32.10;35.00;;;;;;5096109;28;20047;-84
2023/09/11 12:08:23;;;;;;;7.45;4.05;;;32.10;34.20;;;;;;5114387;28;20042;-83
2023/09/11 12:10:49;;;;;;;12.95;4.20;;;32.20;34.00;;;;;;5114420;28;20027;-83
2023/09/11 12:13:20;;;;;;;8.20;4.05;;;32.20;34.10;;;;;;5114242;28;20395;-83
2023/09/11 12:15:57;;;;;;;6.78;4.20;;;32.20;34.20;;;;;;5114264;28;20028;-82
2023/09/11 12:18:30;;;;;;;7.72;4.00;;;32.30;34.20;;;;;;5114521;28;20055;-84
2023/09/11 12:21:02;;;;;;;10.60;4.18;;;32.30;34.00;;;;;;5114152;28;20024;-83
2023/09/11 12:23:28;;;;;;;9.88;3.90;;;32.30;34.40;;;;;;5113791;28;20032;-84
2023/09/11 12:25:55;;;;;;;7.88;3.95;;;32.30;34.60;;;;;;5113696;28;20070;-82
2023/09/11 12:28:22;;;;;;;8.88;4.45;;;32.30;34.70;;;;;;5113470;28;20024;-82
2023/09/11 12:30:49;;;;;;;8.13;3.58;;;32.30;34.60;;;;;;5113801;28;20119;-83
2023/09/11 12:33:20;;;;;;;6.95;3.80;;;32.40;34.70;;;;;;5115366;28;20034;-84
2023/09/11 12:35:46;;;;;;;6.88;3.95;;;32.40;34.60;;;;;;5095256;28;20042;-83
2023/09/11 12:38:12;;;;;;;11.05;4.30;;;32.40;34.50;;;;;;5113207;28;20166;-82
2023/09/11 12:40:42;;;;;;;13.05;3.97;;;32.50;34.70;;;;;;5113290;28;20039;-82
2023/09/11 12:43:08;;;;;;;6.50;3.75;;;32.50;34.90;;;;;;5113452;28;20028;-84
2023/09/11 12:45:34;;;;;;;8.20;4.10;;;32.50;35.00;;;;;;5113206;28;20122;-82